Accueil
METAR-TAF:

METAR-TAF

Aéroports :

Aéroport international de Niue

Alofi, Niue

latitude: 19-04S, longitude: 169-55W, altitude: 20 m

Observation

Le bulletin a été fait il y a 40 minutes, à 01:30 UTC
Vent 14 kt de sud/sud-est
Température 25°C
Humidité 54%
Pression 1014 hPa
Visibilité 10 km ou plus

METAR: NIUE 230130Z AUTO 15014KT 9999 BKN043/// 25/15 Q1014

Heure: 15:10 (02:10 UTC)

Prévision

Le bulletin a été fait il y a 2 heures et 45 minutes, à 23:25 UTC
Prévision valable du 23 à 00 UTC au 23 à 24 UTC
Vent 15 kt de sud-est
Visibilité 10 km ou plus
Nuages épars à une hauteur de 3000 ft

TAF: NIUE 222325Z 2300/2324 14015KT 9999 SCT030

Observations et prévisions météorologiques de plus de 4000 aéroports (messages METAR et TAF).

Les stations disponibles sont représentées par des disques jaunes et rouges sur la carte.

Passer la souris dessus pour voir le nom de la station.

Cliquer dessus pour voir les observations et prévisions météorologiques.

Pour changer de carte: cliquez sur les boutons verts avec une croix noire pour zoomer, sur le bouton vert avec un tiret pour effectuer un zoom arrière, ou sur les flèches vertes pour les cartes adjacentes.


METAR-TAF: